Time;durP1;ratioP1;P1;durP2;ratioP2;P2;SDS_P1;SDS_P2;PMS_P1;PMS_P2;Temp;Humidity;BMP_temperature;BMP_pressure;BME280_temperature;BME280_humidity;BME280_pressure;Samples;Min_cycle;Max_cycle;Signal;HPM_P1;HPM_P2
2023/03/19 00:02:10;;;;;;;;;4.67;4.33;;;;;;;;5070260;28;9362;-89
2023/03/19 00:04:37;;;;;;;;;4.33;4.33;;;;;;;;5070439;28;9357;-90
2023/03/19 00:07:04;;;;;;;;;5.00;5.00;;;;;;;;5070540;28;9383;-88
2023/03/19 00:09:32;;;;;;;;;3.00;3.00;;;;;;;;5069546;28;9394;-90
2023/03/19 00:11:59;;;;;;;;;4.00;4.00;;;;;;;;5069942;28;9391;-89
2023/03/19 00:14:26;;;;;;;;;1.00;1.00;;;;;;;;5070069;28;9421;-88
2023/03/19 00:16:54;;;;;;;;;4.00;4.00;;;;;;;;5080297;28;9461;-90
2023/03/19 00:19:22;;;;;;;;;3.00;3.00;;;;;;;;5072820;28;9327;-90
2023/03/19 00:21:50;;;;;;;;;3.50;3.50;;;;;;;;5071646;28;9406;-88
2023/03/19 00:24:17;;;;;;;;;5.75;5.25;;;;;;;;5082932;28;9542;-89
2023/03/19 00:26:45;;;;;;;;;4.00;4.00;;;;;;;;5080140;28;10126;-88
2023/03/19 00:29:13;;;;;;;;;3.00;3.00;;;;;;;;5070371;28;9498;-87
2023/03/19 00:31:41;;;;;;;;;4.50;3.00;;;;;;;;5069199;28;9432;-89
2023/03/19 00:34:08;;;;;;;;;4.00;4.00;;;;;;;;5068343;28;9527;-87
2023/03/19 00:36:37;;;;;;;;;2.33;2.00;;;;;;;;5069872;28;9392;-85
2023/03/19 00:39:04;;;;;;;;;6.00;3.00;;;;;;;;5056242;28;9345;-89
2023/03/19 00:41:32;;;;;;;;;3.00;3.00;;;;;;;;5070975;28;9329;-87
2023/03/19 00:43:59;;;;;;;;;4.50;3.50;;;;;;;;5075728;28;9464;-90
2023/03/19 00:46:27;;;;;;;;;2.33;2.33;;;;;;;;5054541;28;9388;-89
2023/03/19 00:48:55;;;;;;;;;4.00;4.00;;;;;;;;5058373;28;9356;-90
2023/03/19 00:51:24;;;;;;;;;4.25;4.00;;;;;;;;5069987;28;9475;-88
2023/03/19 00:53:53;;;;;;;;;2.00;2.00;;;;;;;;5065221;28;9535;-88
2023/03/19 00:56:20;;;;;;;;;3.00;3.00;;;;;;;;5074238;28;9429;-89
2023/03/19 00:58:47;;;;;;;;;4.00;4.00;;;;;;;;5081055;28;9552;-88
2023/03/19 01:01:16;;;;;;;;;5.00;3.00;;;;;;;;5072940;28;9391;-89
2023/03/19 01:03:44;;;;;;;;;4.00;4.00;;;;;;;;5084386;28;9484;-85
2023/03/19 01:06:11;;;;;;;;;3.00;3.00;;;;;;;;5071356;28;9483;-88
2023/03/19 01:08:39;;;;;;;;;7.50;4.25;;;;;;;;5056564;28;9325;-91
2023/03/19 01:11:11;;;;;;;;;3.00;3.00;;;;;;;;5072500;28;9412;-87
2023/03/19 01:13:38;;;;;;;;;3.33;3.33;;;;;;;;5074191;28;9397;-90
2023/03/19 01:16:06;;;;;;;;;3.67;3.67;;;;;;;;5073402;28;9248;-91
2023/03/19 01:18:33;;;;;;;;;2.00;2.00;;;;;;;;5072540;28;9495;-89
2023/03/19 01:21:01;;;;;;;;;4.00;4.00;;;;;;;;5072191;28;9574;-90
2023/03/19 01:23:28;;;;;;;;;3.00;3.00;;;;;;;;5071776;28;9260;-90
2023/03/19 01:25:56;;;;;;;;;2.00;2.00;;;;;;;;5079460;28;9363;-91
2023/03/19 01:28:26;;;;;;;;;5.00;3.33;;;;;;;;5081695;28;9345;-91
2023/03/19 01:30:53;;;;;;;;;3.67;3.67;;;;;;;;5077261;28;9254;-90
2023/03/19 01:33:20;;;;;;;;;3.00;3.00;;;;;;;;5068517;28;9179;-90
2023/03/19 01:35:48;;;;;;;;;4.00;4.00;;;;;;;;5070393;28;9383;-88
2023/03/19 01:38:15;;;;;;;;;3.67;3.67;;;;;;;;5071485;28;9192;-90
2023/03/19 01:40:46;;;;;;;;;2.00;2.00;;;;;;;;5062759;28;9283;-88
2023/03/19 01:43:17;;;;;;;;;5.67;5.67;;;;;;;;5064883;28;9211;-87
2023/03/19 01:45:47;;;;;;;;;4.00;4.00;;;;;;;;5072153;28;9075;-86
2023/03/19 01:48:29;;;;;;;;;4.00;4.00;;;;;;;;5066265;28;9093;-85
2023/03/19 01:50:57;;;;;;;;;4.00;4.00;;;;;;;;5053445;28;9166;-91
2023/03/19 01:53:26;;;;;;;;;3.00;3.00;;;;;;;;5068072;28;9204;-90
2023/03/19 01:55:57;;;;;;;;;4.00;2.67;;;;;;;;5072294;28;9178;-90
2023/03/19 01:58:25;;;;;;;;;4.00;4.00;;;;;;;;5064887;28;9274;-89
2023/03/19 02:00:54;;;;;;;;;3.67;3.67;;;;;;;;5065584;28;10035;-87
2023/03/19 02:03:22;;;;;;;;;4.00;4.00;;;;;;;;5074572;28;9378;-88
2023/03/19 02:05:51;;;;;;;;;3.00;3.00;;;;;;;;5080030;28;9396;-92
2023/03/19 02:08:21;;;;;;;;;3.33;3.33;;;;;;;;5066404;28;9518;-88
2023/03/19 02:10:49;;;;;;;;;3.67;3.67;;;;;;;;5077119;28;9415;-90
2023/03/19 02:13:17;;;;;;;;;4.00;4.00;;;;;;;;5061907;28;9314;-88
2023/03/19 02:16:21;;;;;;;;;6.00;4.33;;;;;;;;5072394;28;10080;-90
2023/03/19 02:18:50;;;;;;;;;5.50;5.50;;;;;;;;5073806;28;9325;-87
2023/03/19 02:21:18;;;;;;;;;4.75;4.75;;;;;;;;5065417;28;9568;-92
2023/03/19 02:23:50;;;;;;;;;4.50;4.50;;;;;;;;5073718;28;9608;-89
2023/03/19 02:26:19;;;;;;;;;6.25;5.00;;;;;;;;5071808;28;9481;-90
2023/03/19 02:28:48;;;;;;;;;5.00;5.00;;;;;;;;5076135;28;9486;-92
2023/03/19 02:31:17;;;;;;;;;5.00;5.00;;;;;;;;5079270;28;9405;-90
2023/03/19 02:33:44;;;;;;;;;5.25;4.25;;;;;;;;5071334;28;9569;-92
2023/03/19 02:36:16;;;;;;;;;7.00;5.50;;;;;;;;5071546;28;9541;-93
2023/03/19 02:38:44;;;;;;;;;6.75;6.75;;;;;;;;5071907;28;9571;-88
2023/03/19 02:41:12;;;;;;;;;5.50;5.50;;;;;;;;5071583;28;9624;-91
2023/03/19 02:43:41;;;;;;;;;8.50;6.75;;;;;;;;5072025;28;9532;-89
2023/03/19 02:46:12;;;;;;;;;8.25;8.25;;;;;;;;5072774;28;9558;-94
2023/03/19 02:48:40;;;;;;;;;4.50;4.50;;;;;;;;5078236;28;9646;-90
2023/03/19 02:51:07;;;;;;;;;9.25;9.25;;;;;;;;5071242;28;9536;-92
2023/03/19 02:53:35;;;;;;;;;5.00;5.00;;;;;;;;5074580;28;9675;-92
2023/03/19 02:56:02;;;;;;;;;13.00;10.00;;;;;;;;5073063;28;9723;-90
2023/03/19 02:58:30;;;;;;;;;9.00;8.25;;;;;;;;5072055;28;9637;-90
2023/03/19 03:00:58;;;;;;;;;10.00;10.00;;;;;;;;5070186;28;9551;-92
2023/03/19 03:03:26;;;;;;;;;9.75;9.50;;;;;;;;5082905;28;9695;-91
2023/03/19 03:05:53;;;;;;;;;14.50;11.50;;;;;;;;5070114;28;9604;-90
2023/03/19 03:08:21;;;;;;;;;12.00;12.00;;;;;;;;5070706;28;9628;-88
2023/03/19 03:10:48;;;;;;;;;9.00;9.00;;;;;;;;5070331;28;9618;-89
2023/03/19 03:13:16;;;;;;;;;9.50;9.50;;;;;;;;5058330;28;9618;-88
2023/03/19 03:15:43;;;;;;;;;7.25;7.00;;;;;;;;5073705;28;9535;-90
2023/03/19 03:18:12;;;;;;;;;7.50;7.00;;;;;;;;5075624;28;9546;-90
2023/03/19 03:20:39;;;;;;;;;8.25;8.25;;;;;;;;5077403;28;9757;-90
2023/03/19 03:23:07;;;;;;;;;10.50;10.50;;;;;;;;5050828;28;9643;-91
2023/03/19 03:25:34;;;;;;;;;12.50;8.25;;;;;;;;5071380;28;9682;-90
2023/03/19 03:28:01;;;;;;;;;10.50;8.50;;;;;;;;5065240;28;9729;-89
2023/03/19 03:30:29;;;;;;;;;8.50;8.50;;;;;;;;5063781;28;9522;-89
2023/03/19 03:32:56;;;;;;;;;11.50;9.50;;;;;;;;5059463;28;9658;-88
2023/03/19 03:35:26;;;;;;;;;6.75;6.75;;;;;;;;5070984;28;9623;-89
2023/03/19 03:37:53;;;;;;;;;8.75;8.75;;;;;;;;5065056;28;9604;-89
2023/03/19 03:40:20;;;;;;;;;8.25;8.25;;;;;;;;5063200;28;9633;-89
2023/03/19 03:42:48;;;;;;;;;8.75;8.75;;;;;;;;5070689;28;9622;-89
2023/03/19 03:45:15;;;;;;;;;9.00;9.00;;;;;;;;5070260;28;9587;-91
2023/03/19 03:47:43;;;;;;;;;8.25;8.25;;;;;;;;5070100;28;9622;-90
2023/03/19 03:50:11;;;;;;;;;10.00;10.00;;;;;;;;5045678;28;9732;-94
2023/03/19 03:52:40;;;;;;;;;10.25;10.25;;;;;;;;5070570;28;9483;-93
2023/03/19 03:55:09;;;;;;;;;9.75;9.75;;;;;;;;5070294;28;9639;-92
2023/03/19 03:57:36;;;;;;;;;12.75;12.00;;;;;;;;5070613;28;9680;-92
2023/03/19 04:00:04;;;;;;;;;13.50;10.75;;;;;;;;5074840;28;9626;-90
2023/03/19 04:02:32;;;;;;;;;9.50;9.50;;;;;;;;5063481;28;9758;-91
2023/03/19 04:04:59;;;;;;;;;12.75;11.75;;;;;;;;5068523;28;9619;-91
2023/03/19 04:07:27;;;;;;;;;14.00;14.00;;;;;;;;5077326;28;9645;-93
2023/03/19 04:09:58;;;;;;;;;12.25;12.25;;;;;;;;5062273;28;10164;-93
2023/03/19 04:12:28;;;;;;;;;13.00;13.00;;;;;;;;5071155;28;9610;-92
2023/03/19 04:14:55;;;;;;;;;11.75;9.50;;;;;;;;5065521;28;9606;-92
2023/03/19 04:17:24;;;;;;;;;11.25;11.25;;;;;;;;5076120;28;9638;-91
2023/03/19 04:19:52;;;;;;;;;15.75;14.00;;;;;;;;5064905;28;9692;-91
2023/03/19 04:22:19;;;;;;;;;11.25;11.25;;;;;;;;5069048;28;9699;-91
2023/03/19 04:24:49;;;;;;;;;11.00;9.75;;;;;;;;5061966;28;9721;-92
2023/03/19 04:27:17;;;;;;;;;14.50;11.25;;;;;;;;5078427;28;9712;-91
2023/03/19 04:29:45;;;;;;;;;13.50;11.75;;;;;;;;5073765;28;9549;-92
2023/03/19 04:32:12;;;;;;;;;10.25;9.50;;;;;;;;5070337;28;9545;-90
2023/03/19 04:34:40;;;;;;;;;11.25;9.25;;;;;;;;5071788;28;10504;-90
2023/03/19 04:37:09;;;;;;;;;13.00;10.00;;;;;;;;5089287;28;9840;-90
2023/03/19 04:39:36;;;;;;;;;12.00;10.00;;;;;;;;5071474;28;9967;-89
2023/03/19 04:42:04;;;;;;;;;9.00;7.75;;;;;;;;5071389;28;9833;-88
2023/03/19 04:44:33;;;;;;;;;9.00;9.00;;;;;;;;5085718;28;9776;-89
2023/03/19 04:47:01;;;;;;;;;13.50;13.00;;;;;;;;5047627;28;9757;-88
2023/03/19 04:49:29;;;;;;;;;11.25;11.25;;;;;;;;5072894;28;9885;-90
2023/03/19 04:51:57;;;;;;;;;12.00;12.00;;;;;;;;5070352;28;9807;-91
2023/03/19 04:54:25;;;;;;;;;9.50;9.50;;;;;;;;5071811;28;9873;-91
2023/03/19 04:56:53;;;;;;;;;14.00;12.00;;;;;;;;5069923;28;9692;-92
2023/03/19 04:59:21;;;;;;;;;7.25;7.25;;;;;;;;5070163;28;9730;-91
2023/03/19 05:01:49;;;;;;;;;12.25;8.50;;;;;;;;5051775;28;9659;-90
2023/03/19 05:04:19;;;;;;;;;12.50;12.50;;;;;;;;5069728;28;10078;-92
2023/03/19 05:06:49;;;;;;;;;10.00;10.00;;;;;;;;5069563;28;10713;-90
2023/03/19 05:09:16;;;;;;;;;15.50;14.25;;;;;;;;5070216;28;10082;-92
2023/03/19 05:11:43;;;;;;;;;14.50;12.75;;;;;;;;5072547;28;10020;-90
2023/03/19 05:14:11;;;;;;;;;9.00;9.00;;;;;;;;5073674;28;10011;-92
2023/03/19 05:16:38;;;;;;;;;10.75;10.75;;;;;;;;5076826;28;10461;-91
2023/03/19 05:19:07;;;;;;;;;14.00;14.00;;;;;;;;5072947;28;9924;-90
2023/03/19 05:21:34;;;;;;;;;14.75;13.00;;;;;;;;5067410;28;10206;-90
2023/03/19 05:24:01;;;;;;;;;11.75;11.50;;;;;;;;5066956;28;10057;-91
2023/03/19 05:26:29;;;;;;;;;11.75;10.25;;;;;;;;5055523;28;9920;-90
2023/03/19 05:28:56;;;;;;;;;13.50;12.00;;;;;;;;5067049;28;9931;-92
2023/03/19 05:31:23;;;;;;;;;14.00;14.00;;;;;;;;5064049;28;9965;-90
2023/03/19 05:33:51;;;;;;;;;12.25;12.25;;;;;;;;5060392;28;9888;-90
2023/03/19 05:36:20;;;;;;;;;13.25;12.50;;;;;;;;5068964;28;9938;-87
2023/03/19 05:38:47;;;;;;;;;14.50;11.50;;;;;;;;5079366;28;9914;-91
2023/03/19 05:41:15;;;;;;;;;16.25;14.00;;;;;;;;5071473;28;10190;-86
2023/03/19 05:43:42;;;;;;;;;13.25;13.25;;;;;;;;5077864;28;10127;-88
2023/03/19 05:46:10;;;;;;;;;16.00;15.00;;;;;;;;5072275;28;9921;-92
2023/03/19 05:48:37;;;;;;;;;16.50;13.50;;;;;;;;5073090;28;10057;-91
2023/03/19 05:51:06;;;;;;;;;14.50;14.50;;;;;;;;5068427;28;10020;-92
2023/03/19 05:53:34;;;;;;;;;17.25;17.25;;;;;;;;5067574;28;10146;-90
2023/03/19 05:56:02;;;;;;;;;12.75;12.25;;;;;;;;5070140;28;10280;-89
2023/03/19 05:58:29;;;;;;;;;14.25;14.00;;;;;;;;5082285;28;9936;-90
2023/03/19 06:00:57;;;;;;;;;16.75;15.50;;;;;;;;5071750;28;10060;-88
2023/03/19 06:03:27;;;;;;;;;16.00;15.50;;;;;;;;5072390;28;10228;-93
2023/03/19 06:05:54;;;;;;;;;7.50;6.50;;;;;;;;5065939;28;10031;-91
2023/03/19 06:08:22;;;;;;;;;16.25;14.75;;;;;;;;5064343;28;10008;-90
2023/03/19 06:10:54;;;;;;;;;14.75;14.75;;;;;;;;5085774;28;10104;-87
2023/03/19 06:13:22;;;;;;;;;15.25;12.50;;;;;;;;5087909;28;10166;-94
2023/03/19 06:15:49;;;;;;;;;19.50;19.50;;;;;;;;5073844;28;10093;-87
2023/03/19 06:18:17;;;;;;;;;19.75;17.50;;;;;;;;5069162;28;10414;-91
2023/03/19 06:20:45;;;;;;;;;24.75;24.75;;;;;;;;5072180;28;10168;-92
2023/03/19 06:23:16;;;;;;;;;23.25;17.25;;;;;;;;5052081;28;10447;-94
2023/03/19 06:25:43;;;;;;;;;22.25;22.25;;;;;;;;5061181;28;10183;-88
2023/03/19 06:28:12;;;;;;;;;22.00;19.00;;;;;;;;5071213;28;10247;-92
2023/03/19 06:30:39;;;;;;;;;22.75;21.25;;;;;;;;5070682;28;10209;-93
2023/03/19 06:33:06;;;;;;;;;15.25;15.25;;;;;;;;5071827;28;10392;-93
2023/03/19 06:35:33;;;;;;;;;18.50;17.50;;;;;;;;5072174;28;10176;-89
2023/03/19 06:38:01;;;;;;;;;22.75;21.25;;;;;;;;5073972;28;10253;-93
2023/03/19 06:40:28;;;;;;;;;17.25;15.50;;;;;;;;5070737;28;10395;-90
2023/03/19 06:42:55;;;;;;;;;18.25;16.75;;;;;;;;5070930;28;10281;-93
2023/03/19 06:45:24;;;;;;;;;18.00;16.25;;;;;;;;5070360;28;10188;-93
2023/03/19 06:47:52;;;;;;;;;16.25;16.00;;;;;;;;5071965;28;10217;-91
2023/03/19 06:50:20;;;;;;;;;14.00;14.00;;;;;;;;5065053;28;10177;-92
2023/03/19 06:52:57;;;;;;;;;16.75;15.25;;;;;;;;5067222;28;10245;-89
2023/03/19 06:55:32;;;;;;;;;22.25;17.50;;;;;;;;5051589;28;10089;-89
2023/03/19 06:57:59;;;;;;;;;19.75;17.50;;;;;;;;5066262;28;10103;-92
2023/03/19 07:00:29;;;;;;;;;13.00;13.00;;;;;;;;5068522;28;10032;-93
2023/03/19 07:03:06;;;;;;;;;18.00;17.50;;;;;;;;5073947;28;10934;-94
2023/03/19 07:05:34;;;;;;;;;17.50;17.50;;;;;;;;5064056;28;10203;-94
2023/03/19 07:08:03;;;;;;;;;21.00;20.00;;;;;;;;5070360;28;10206;-91
2023/03/19 07:10:31;;;;;;;;;15.75;15.75;;;;;;;;5079180;28;10268;-89
2023/03/19 07:13:05;;;;;;;;;14.50;14.50;;;;;;;;5071594;28;10198;-92
2023/03/19 07:15:35;;;;;;;;;15.00;15.00;;;;;;;;5080744;28;10012;-89
2023/03/19 07:18:03;;;;;;;;;20.75;18.25;;;;;;;;5071657;28;10175;-82
2023/03/19 07:20:30;;;;;;;;;17.00;17.00;;;;;;;;5069042;28;10193;-81
2023/03/19 07:22:58;;;;;;;;;17.00;15.50;;;;;;;;5072511;28;10221;-80
2023/03/19 07:25:25;;;;;;;;;20.50;17.00;;;;;;;;5064110;28;10729;-83
2023/03/19 07:27:52;;;;;;;;;16.00;16.00;;;;;;;;5059778;28;10022;-82
2023/03/19 07:30:20;;;;;;;;;15.00;13.00;;;;;;;;5067030;28;9963;-79
2023/03/19 07:32:49;;;;;;;;;16.00;16.00;;;;;;;;5068890;28;9937;-82
2023/03/19 07:35:16;;;;;;;;;15.00;14.25;;;;;;;;5072523;28;10059;-81
2023/03/19 07:37:43;;;;;;;;;17.75;17.00;;;;;;;;5070010;28;10033;-80
2023/03/19 07:40:12;;;;;;;;;16.25;16.25;;;;;;;;5068865;28;10153;-78
2023/03/19 07:42:39;;;;;;;;;16.25;15.00;;;;;;;;5066498;28;10981;-82
2023/03/19 07:45:07;;;;;;;;;15.00;15.00;;;;;;;;5067992;28;10198;-80
2023/03/19 07:47:35;;;;;;;;;15.75;15.75;;;;;;;;5068700;28;10184;-74
2023/03/19 07:50:03;;;;;;;;;17.25;14.00;;;;;;;;5059646;28;10010;-76
2023/03/19 07:52:31;;;;;;;;;12.00;12.00;;;;;;;;5067096;28;9770;-75
2023/03/19 07:54:58;;;;;;;;;12.50;7.75;;;;;;;;5061974;28;9880;-78
2023/03/19 07:57:25;;;;;;;;;13.25;13.25;;;;;;;;5059623;28;9946;-81
2023/03/19 07:59:53;;;;;;;;;14.25;12.50;;;;;;;;5067928;28;10024;-77
2023/03/19 08:02:20;;;;;;;;;9.50;9.25;;;;;;;;5062822;28;10054;-81
2023/03/19 08:04:47;;;;;;;;;10.25;10.25;;;;;;;;5059709;28;9950;-76
2023/03/19 08:07:15;;;;;;;;;10.75;10.75;;;;;;;;5062641;28;9941;-77
2023/03/19 08:09:43;;;;;;;;;16.25;14.25;;;;;;;;5059905;28;9939;-80
2023/03/19 08:12:10;;;;;;;;;13.00;13.00;;;;;;;;5063128;28;9964;-77
2023/03/19 08:14:37;;;;;;;;;13.25;13.25;;;;;;;;5064353;28;10755;-82
2023/03/19 08:17:05;;;;;;;;;11.00;10.50;;;;;;;;5068549;28;10041;-84
2023/03/19 08:19:32;;;;;;;;;16.75;14.75;;;;;;;;5069161;28;9910;-83
2023/03/19 08:21:59;;;;;;;;;17.50;14.75;;;;;;;;5067121;28;9858;-81
2023/03/19 08:24:28;;;;;;;;;14.25;13.00;;;;;;;;5065581;28;9920;-79
2023/03/19 08:26:55;;;;;;;;;15.00;13.00;;;;;;;;5065513;28;9773;-80
2023/03/19 08:29:25;;;;;;;;;14.75;13.00;;;;;;;;5065861;28;9851;-80
2023/03/19 08:31:52;;;;;;;;;18.75;15.75;;;;;;;;5067563;28;9948;-81
2023/03/19 08:34:20;;;;;;;;;14.25;14.25;;;;;;;;5066112;28;9928;-78
2023/03/19 08:36:48;;;;;;;;;15.00;14.00;;;;;;;;5063469;28;9768;-79
2023/03/19 08:39:15;;;;;;;;;13.75;13.00;;;;;;;;5075578;28;9767;-78
2023/03/19 08:41:44;;;;;;;;;18.25;16.25;;;;;;;;5066931;28;9624;-79
2023/03/19 08:44:12;;;;;;;;;13.50;13.25;;;;;;;;5066368;28;9537;-80
2023/03/19 08:46:41;;;;;;;;;19.50;16.50;;;;;;;;5069882;28;9958;-78
2023/03/19 08:49:08;;;;;;;;;13.00;13.00;;;;;;;;5065801;28;9603;-80
2023/03/19 08:51:36;;;;;;;;;17.50;16.50;;;;;;;;5064450;28;9396;-80
2023/03/19 08:54:03;;;;;;;;;16.00;16.00;;;;;;;;5067357;28;9650;-78
2023/03/19 08:56:30;;;;;;;;;18.50;16.75;;;;;;;;5067169;28;10432;-79
2023/03/19 08:58:59;;;;;;;;;13.75;13.75;;;;;;;;5067848;28;9770;-78
2023/03/19 09:01:27;;;;;;;;;16.75;16.75;;;;;;;;5066224;28;9509;-81
2023/03/19 09:03:54;;;;;;;;;15.25;15.00;;;;;;;;5071599;28;9842;-77
2023/03/19 09:06:21;;;;;;;;;17.50;17.50;;;;;;;;5056476;28;9787;-77
2023/03/19 09:08:49;;;;;;;;;17.25;15.25;;;;;;;;5070251;28;9760;-77
2023/03/19 09:11:19;;;;;;;;;13.75;13.75;;;;;;;;5056629;28;9952;-76
2023/03/19 09:13:46;;;;;;;;;16.00;15.50;;;;;;;;5053923;28;9954;-77
2023/03/19 09:16:15;;;;;;;;;17.00;14.00;;;;;;;;5057483;28;10023;-78
2023/03/19 09:18:42;;;;;;;;;17.50;15.75;;;;;;;;5067215;28;10097;-80
2023/03/19 09:21:10;;;;;;;;;19.00;17.75;;;;;;;;5068141;28;9956;-77
2023/03/19 09:23:37;;;;;;;;;23.50;17.75;;;;;;;;5069895;28;10189;-79
2023/03/19 09:26:05;;;;;;;;;23.50;23.50;;;;;;;;5071351;28;11056;-78
2023/03/19 09:28:33;;;;;;;;;23.25;23.25;;;;;;;;5069472;28;10330;-83
2023/03/19 09:31:05;;;;;;;;;22.50;18.75;;;;;;;;5067754;28;10372;-80
2023/03/19 09:33:34;;;;;;;;;18.25;16.75;;;;;;;;5075142;28;10402;-77
2023/03/19 09:36:01;;;;;;;;;21.50;20.00;;;;;;;;5075328;28;10530;-78
2023/03/19 09:38:30;;;;;;;;;22.50;21.25;;;;;;;;5069935;28;10456;-76
2023/03/19 09:41:07;;;;;;;;;19.25;18.00;;;;;;;;5069131;28;10330;-76
2023/03/19 09:43:46;;;;;;;;;18.50;18.00;;;;;;;;5070075;28;10600;-77
2023/03/19 09:46:18;;;;;;;;;15.50;14.00;;;;;;;;5065476;28;10259;-76
2023/03/19 09:48:53;;;;;;;;;16.00;14.50;;;;;;;;5069925;28;10085;-77
2023/03/19 09:51:29;;;;;;;;;14.25;14.25;;;;;;;;5067336;28;10085;-77
2023/03/19 09:53:58;;;;;;;;;13.00;9.50;;;;;;;;5068853;28;10100;-75
2023/03/19 09:56:26;;;;;;;;;14.00;13.50;;;;;;;;5079323;28;10138;-80
2023/03/19 09:58:54;;;;;;;;;15.00;13.00;;;;;;;;5065536;28;10128;-80
2023/03/19 10:01:27;;;;;;;;;10.75;10.75;;;;;;;;5066562;28;10093;-76
2023/03/19 10:04:17;;;;;;;;;11.00;8.25;;;;;;;;5070683;28;9932;-79
2023/03/19 10:06:44;;;;;;;;;6.50;6.50;;;;;;;;5066246;28;10124;-77
2023/03/19 10:09:32;;;;;;;;;11.00;10.25;;;;;;;;5070328;28;10321;-79
2023/03/19 10:12:11;;;;;;;;;8.50;6.75;;;;;;;;5065983;28;10047;-83
2023/03/19 10:14:51;;;;;;;;;6.25;5.25;;;;;;;;5072256;28;10045;-88
2023/03/19 10:17:21;;;;;;;;;8.00;5.00;;;;;;;;5068070;28;9777;-84
2023/03/19 10:19:53;;;;;;;;;6.00;6.00;;;;;;;;5065495;28;9761;-90
2023/03/19 10:22:24;;;;;;;;;5.00;5.00;;;;;;;;5072033;28;9743;-81
2023/03/19 10:24:54;;;;;;;;;7.25;5.50;;;;;;;;5069410;28;9863;-84
2023/03/19 10:27:25;;;;;;;;;6.75;6.75;;;;;;;;5068967;28;9889;-87
2023/03/19 10:29:52;;;;;;;;;10.25;6.75;;;;;;;;5071157;28;10046;-81
2023/03/19 10:32:24;;;;;;;;;6.75;4.50;;;;;;;;5080750;28;9910;-87
2023/03/19 10:34:59;;;;;;;;;4.00;4.00;;;;;;;;5069239;28;9877;-89
2023/03/19 10:37:29;;;;;;;;;5.75;5.75;;;;;;;;5052344;28;9905;-90
2023/03/19 10:40:02;;;;;;;;;6.00;6.00;;;;;;;;5081699;28;9894;-89
2023/03/19 10:42:40;;;;;;;;;3.25;3.25;;;;;;;;5071599;28;10031;-88
2023/03/19 10:45:19;;;;;;;;;3.25;3.25;;;;;;;;5073005;28;9986;-92
2023/03/19 10:47:46;;;;;;;;;3.00;3.00;;;;;;;;5070749;28;9945;-89
2023/03/19 10:50:19;;;;;;;;;2.00;2.00;;;;;;;;5069046;28;9937;-90
2023/03/19 10:52:51;;;;;;;;;3.00;2.00;;;;;;;;5063414;28;9849;-90
2023/03/19 10:55:19;;;;;;;;;3.00;3.00;;;;;;;;5068995;28;9889;-93
2023/03/19 10:57:50;;;;;;;;;2.00;2.00;;;;;;;;5065301;28;9763;-86
2023/03/19 11:00:20;;;;;;;;;2.00;2.00;;;;;;;;5064373;28;9782;-88
2023/03/19 11:02:49;;;;;;;;;2.50;2.50;;;;;;;;5071068;28;9778;-74
2023/03/19 11:05:26;;;;;;;;;2.25;2.25;;;;;;;;5067635;28;9763;-78
2023/03/19 11:07:57;;;;;;;;;1.00;1.00;;;;;;;;5059248;28;9635;-79
2023/03/19 11:10:28;;;;;;;;;2.00;2.00;;;;;;;;5064847;28;9565;-88
2023/03/19 11:12:57;;;;;;;;;2.00;2.00;;;;;;;;5069391;28;9809;-86
2023/03/19 11:15:29;;;;;;;;;2.00;2.00;;;;;;;;5070746;28;9695;-87
2023/03/19 11:17:58;;;;;;;;;1.00;1.00;;;;;;;;5067823;28;9870;-81
2023/03/19 11:20:32;;;;;;;;;2.00;2.00;;;;;;;;5067243;28;10005;-84
2023/03/19 11:23:02;;;;;;;;;2.00;2.00;;;;;;;;5065407;28;9946;-85
2023/03/19 11:25:30;;;;;;;;;0.75;0.75;;;;;;;;5068602;28;9845;-88
2023/03/19 11:28:02;;;;;;;;;2.25;2.25;;;;;;;;5059336;28;9876;-88
2023/03/19 11:30:37;;;;;;;;;5.00;5.00;;;;;;;;5053738;28;9788;-84
2023/03/19 11:33:31;;;;;;;;;7.75;7.75;;;;;;;;5055340;28;9879;-80
2023/03/19 11:36:05;;;;;;;;;2.50;2.00;;;;;;;;5060348;28;9948;-88
2023/03/19 11:38:38;;;;;;;;;1.00;1.00;;;;;;;;5062805;28;9713;-84
2023/03/19 11:41:15;;;;;;;;;3.00;1.00;;;;;;;;5068238;28;9580;-86
2023/03/19 11:43:54;;;;;;;;;1.00;1.00;;;;;;;;5063294;28;9888;-81
2023/03/19 11:46:32;;;;;;;;;3.00;1.00;;;;;;;;5063981;28;9734;-86
2023/03/19 11:49:21;;;;;;;;;1.50;1.00;;;;;;;;5066216;28;9743;-87
2023/03/19 11:51:55;;;;;;;;;2.00;1.00;;;;;;;;5068291;28;9771;-77
2023/03/19 11:54:27;;;;;;;;;1.00;1.00;;;;;;;;5070517;28;9703;-80
2023/03/19 11:57:00;;;;;;;;;6.00;6.00;;;;;;;;5060697;28;9751;-80
2023/03/19 12:00:08;;;;;;;;;4.50;4.00;;;;;;;;5068327;28;10159;-84
2023/03/19 12:02:54;;;;;;;;;3.00;3.00;;;;;;;;5053261;28;9746;-81
2023/03/19 12:05:26;;;;;;;;;1.25;1.25;;;;;;;;5068941;28;9936;-80
2023/03/19 12:08:07;;;;;;;;;17.75;13.00;;;;;;;;5068485;28;9618;-81
2023/03/19 12:10:52;;;;;;;;;3.00;3.00;;;;;;;;5077349;28;9940;-80
2023/03/19 12:13:29;;;;;;;;;7.00;5.50;;;;;;;;5053085;28;9414;-82
2023/03/19 12:16:05;;;;;;;;;12.50;10.50;;;;;;;;5076791;28;9544;-89
2023/03/19 12:18:51;;;;;;;;;2.00;2.00;;;;;;;;5065129;28;9715;-91
2023/03/19 12:21:25;;;;;;;;;6.00;6.00;;;;;;;;5061625;28;9100;-83
2023/03/19 12:24:03;;;;;;;;;1.00;1.00;;;;;;;;5060139;28;9390;-82
2023/03/19 12:26:41;;;;;;;;;2.00;2.00;;;;;;;;5062960;28;9073;-85
2023/03/19 12:29:17;;;;;;;;;3.00;3.00;;;;;;;;5067385;28;9062;-86
2023/03/19 12:32:06;;;;;;;;;1.00;0.00;;;;;;;;5067671;28;9969;-86
2023/03/19 12:34:37;;;;;;;;;1.00;1.00;;;;;;;;5069526;28;9097;-88
2023/03/19 12:37:20;;;;;;;;;1.00;1.00;;;;;;;;5061543;28;9286;-91
2023/03/19 12:40:05;;;;;;;;;1.00;1.00;;;;;;;;5076050;28;9006;-90
2023/03/19 12:42:37;;;;;;;;;2.00;0.67;;;;;;;;5071269;28;9334;-81
2023/03/19 12:45:13;;;;;;;;;1.00;1.00;;;;;;;;5067152;28;8944;-86
2023/03/19 12:47:41;;;;;;;;;2.00;2.00;;;;;;;;5067065;28;9027;-87
2023/03/19 12:50:11;;;;;;;;;2.00;2.00;;;;;;;;5064628;28;9113;-88
2023/03/19 12:52:39;;;;;;;;;3.33;3.33;;;;;;;;5065301;28;9192;-90
2023/03/19 12:55:18;;;;;;;;;1.00;1.00;;;;;;;;5069763;28;9171;-89
2023/03/19 12:57:49;;;;;;;;;2.00;2.00;;;;;;;;5061476;28;9179;-86
2023/03/19 13:00:22;;;;;;;;;4.00;2.00;;;;;;;;5071135;28;9303;-87
2023/03/19 13:02:56;;;;;;;;;2.33;2.33;;;;;;;;5067628;28;9208;-90
2023/03/19 13:05:30;;;;;;;;;3.00;3.00;;;;;;;;5042830;28;9029;-87
2023/03/19 13:08:02;;;;;;;;;3.75;3.75;;;;;;;;5068798;28;8922;-86
2023/03/19 13:10:32;;;;;;;;;2.00;2.00;;;;;;;;5066092;28;8866;-89
2023/03/19 13:13:00;;;;;;;;;1.75;1.75;;;;;;;;5051781;28;8923;-85
2023/03/19 13:15:31;;;;;;;;;1.75;1.75;;;;;;;;5064732;28;8845;-90
2023/03/19 13:18:06;;;;;;;;;2.00;2.00;;;;;;;;5071560;28;8841;-84
2023/03/19 13:20:49;;;;;;;;;3.50;2.00;;;;;;;;5062100;28;8856;-83
2023/03/19 13:23:23;;;;;;;;;3.50;3.50;;;;;;;;5068131;28;8865;-89
2023/03/19 13:25:52;;;;;;;;;2.00;2.00;;;;;;;;5069912;28;8844;-88
2023/03/19 13:28:26;;;;;;;;;5.50;3.00;;;;;;;;5069384;28;8837;-83
2023/03/19 13:31:01;;;;;;;;;3.00;3.00;;;;;;;;5070928;28;8869;-82
2023/03/19 13:33:30;;;;;;;;;3.00;3.00;;;;;;;;5072802;28;8843;-83
2023/03/19 13:36:00;;;;;;;;;4.50;4.50;;;;;;;;5066621;28;8939;-89
2023/03/19 13:38:31;;;;;;;;;1.75;1.75;;;;;;;;5067945;28;8840;-89
2023/03/19 13:41:00;;;;;;;;;1.00;1.00;;;;;;;;5064344;28;8942;-85
2023/03/19 13:43:54;;;;;;;;;1.00;1.00;;;;;;;;5068648;28;8848;-79
2023/03/19 13:46:45;;;;;;;;;5.00;3.67;;;;;;;;5067363;28;9077;-79
2023/03/19 13:49:32;;;;;;;;;2.33;2.33;;;;;;;;5050899;28;8946;-83
2023/03/19 13:52:02;;;;;;;;;4.00;2.67;;;;;;;;5063329;28;9089;-88
2023/03/19 13:54:35;;;;;;;;;2.33;2.33;;;;;;;;5060656;28;9178;-86
2023/03/19 13:57:17;;;;;;;;;6.00;4.00;;;;;;;;5061438;28;9208;-83
2023/03/19 13:59:46;;;;;;;;;4.00;4.00;;;;;;;;5062971;28;9349;-80
2023/03/19 14:02:46;;;;;;;;;3.00;3.00;;;;;;;;5066975;28;9354;-89
2023/03/19 14:05:18;;;;;;;;;6.25;3.00;;;;;;;;5064810;28;9333;-85
2023/03/19 14:07:53;;;;;;;;;4.00;4.00;;;;;;;;5069795;28;9561;-86
2023/03/19 14:10:25;;;;;;;;;4.00;4.00;;;;;;;;5057696;28;9545;-87
2023/03/19 14:13:02;;;;;;;;;2.00;2.00;;;;;;;;5071637;28;9482;-81
2023/03/19 14:15:30;;;;;;;;;3.00;3.00;;;;;;;;5064715;28;9316;-77
2023/03/19 14:18:05;;;;;;;;;1.33;1.00;;;;;;;;5069139;28;10230;-82
2023/03/19 14:20:34;;;;;;;;;3.00;3.00;;;;;;;;5063925;28;9328;-83
2023/03/19 14:23:20;;;;;;;;;3.67;3.00;;;;;;;;5061906;28;9332;-81
2023/03/19 14:25:58;;;;;;;;;4.00;4.00;;;;;;;;5069742;28;9114;-81
2023/03/19 14:28:48;;;;;;;;;6.00;4.00;;;;;;;;5069087;28;9023;-82
2023/03/19 14:31:28;;;;;;;;;3.50;3.50;;;;;;;;5060812;28;9082;-80
2023/03/19 14:34:02;;;;;;;;;6.33;5.00;;;;;;;;5064583;28;8868;-81
2023/03/19 14:36:29;;;;;;;;;3.67;3.00;;;;;;;;5069602;28;8942;-79
2023/03/19 14:39:00;;;;;;;;;3.75;3.00;;;;;;;;5070308;28;8977;-84
2023/03/19 14:41:35;;;;;;;;;3.00;3.00;;;;;;;;5072643;28;8865;-80
2023/03/19 14:44:32;;;;;;;;;2.67;2.67;;;;;;;;5074852;28;9017;-78
2023/03/19 14:47:25;;;;;;;;;3.00;3.00;;;;;;;;5066582;28;9011;-82
2023/03/19 14:50:29;;;;;;;;;2.00;2.00;;;;;;;;5065554;28;9081;-87
2023/03/19 14:53:01;;;;;;;;;2.25;2.25;;;;;;;;5062488;28;9036;-84
2023/03/19 14:55:36;;;;;;;;;1.75;1.75;;;;;;;;5066187;28;8868;-89
2023/03/19 14:58:04;;;;;;;;;1.00;1.00;;;;;;;;5074854;28;8866;-86
2023/03/19 15:00:42;;;;;;;;;1.00;1.00;;;;;;;;5064524;28;9507;-87
2023/03/19 15:03:23;;;;;;;;;1.00;1.00;;;;;;;;5063630;28;8982;-86